createdAt,value
2023-03-08T00:00:23.857Z,26
2023-03-08T00:01:32.195Z,26
2023-03-08T00:02:47.859Z,26
2023-03-08T00:03:55.092Z,26
2023-03-08T00:05:05.007Z,26
2023-03-08T00:06:13.360Z,28
2023-03-08T00:07:30.955Z,28
2023-03-08T00:08:39.050Z,28
2023-03-08T00:09:45.971Z,27
2023-03-08T00:10:52.989Z,27
2023-03-08T00:12:01.749Z,25
2023-03-08T00:13:19.412Z,29
2023-03-08T00:14:26.474Z,27
2023-03-08T00:15:33.524Z,25
2023-03-08T00:16:40.592Z,23
2023-03-08T00:17:53.670Z,25
2023-03-08T00:19:01.875Z,26
2023-03-08T00:20:12.091Z,25
2023-03-08T00:21:19.404Z,25
2023-03-08T00:22:26.407Z,25
2023-03-08T00:23:33.600Z,24
2023-03-08T00:24:44.956Z,20
2023-03-08T00:25:52.007Z,24
2023-03-08T00:27:02.207Z,27
2023-03-08T00:28:11.216Z,24
2023-03-08T00:29:18.412Z,25
2023-03-08T00:30:25.411Z,24
2023-03-08T00:31:34.999Z,28
2023-03-08T00:32:43.004Z,28
2023-03-08T00:33:50.583Z,29
2023-03-08T00:34:57.651Z,26
2023-03-08T00:36:04.702Z,26
2023-03-08T00:37:22.506Z,26
2023-03-08T00:38:30.038Z,24
2023-03-08T00:39:45.704Z,24
2023-03-08T00:40:55.553Z,23
2023-03-08T00:42:05.113Z,27
2023-03-08T00:43:12.135Z,27
2023-03-08T00:44:21.660Z,24
2023-03-08T00:45:28.789Z,25
2023-03-08T00:46:35.943Z,23
2023-03-08T00:47:43.915Z,26
2023-03-08T00:48:56.890Z,26
2023-03-08T00:50:05.181Z,24
2023-03-08T00:51:17.229Z,23
2023-03-08T00:52:24.341Z,22
2023-03-08T00:53:50.813Z,25
2023-03-08T00:55:04.297Z,24
2023-03-08T00:56:14.613Z,23
2023-03-08T00:57:30.166Z,26
2023-03-08T00:58:37.249Z,27
2023-03-08T00:59:44.236Z,24
2023-03-08T01:00:51.650Z,25
2023-03-08T01:01:58.586Z,22
2023-03-08T01:03:08.270Z,28
2023-03-08T01:04:18.122Z,30
2023-03-08T01:05:41.533Z,27
2023-03-08T01:06:51.258Z,27
2023-03-08T01:07:58.303Z,26
2023-03-08T01:09:05.642Z,27
2023-03-08T01:10:13.332Z,29
2023-03-08T01:11:27.765Z,26
2023-03-08T01:12:54.108Z,24
2023-03-08T01:14:05.477Z,23
2023-03-08T01:15:12.432Z,26
2023-03-08T01:16:34.461Z,27
2023-03-08T01:17:41.829Z,21
2023-03-08T01:18:49.151Z,23
2023-03-08T01:19:56.391Z,22
2023-03-08T01:21:03.341Z,22
2023-03-08T01:22:13.620Z,24
2023-03-08T01:23:28.389Z,26
2023-03-08T01:24:50.899Z,20
2023-03-08T01:26:13.877Z,23
2023-03-08T01:27:34.282Z,21
2023-03-08T01:28:41.956Z,21
2023-03-08T01:30:04.747Z,24
2023-03-08T01:31:12.003Z,23
2023-03-08T01:32:30.647Z,20
2023-03-08T01:33:37.606Z,20
2023-03-08T01:34:44.709Z,21
2023-03-08T01:35:52.342Z,21
2023-03-08T01:37:12.822Z,19
2023-03-08T01:38:20.021Z,19
2023-03-08T01:39:27.921Z,22
2023-03-08T01:40:35.677Z,20
2023-03-08T01:41:49.090Z,20
2023-03-08T01:42:56.282Z,23
2023-03-08T01:44:11.083Z,20
2023-03-08T01:45:31.701Z,19
2023-03-08T01:46:49.424Z,23
2023-03-08T01:47:58.436Z,24
2023-03-08T01:49:05.515Z,25
2023-03-08T01:50:28.205Z,21
2023-03-08T01:51:43.177Z,23
2023-03-08T01:52:51.501Z,21
2023-03-08T01:53:59.107Z,24
2023-03-08T01:55:06.944Z,21
2023-03-08T01:56:22.312Z,22
2023-03-08T01:57:35.228Z,22
2023-03-08T01:58:44.368Z,23
2023-03-08T01:59:58.060Z,20
2023-03-08T02:01:11.581Z,21
2023-03-08T02:02:26.509Z,21
2023-03-08T02:03:36.131Z,21
2023-03-08T02:04:43.227Z,21
2023-03-08T02:05:51.132Z,21
2023-03-08T02:07:07.540Z,19
2023-03-08T02:08:15.154Z,21
2023-03-08T02:09:25.222Z,25
2023-03-08T02:10:32.783Z,21
2023-03-08T02:11:39.904Z,21
2023-03-08T02:12:46.921Z,22
2023-03-08T02:13:59.156Z,21
2023-03-08T02:15:06.224Z,19
2023-03-08T02:16:14.278Z,20
2023-03-08T02:17:36.103Z,21
2023-03-08T02:18:43.297Z,21
2023-03-08T02:19:55.662Z,23
2023-03-08T02:21:12.824Z,23
2023-03-08T02:22:21.345Z,20
2023-03-08T02:23:29.125Z,21
2023-03-08T02:24:50.089Z,22
2023-03-08T02:26:06.529Z,21
2023-03-08T02:27:15.906Z,22
2023-03-08T02:28:30.260Z,22
2023-03-08T02:29:43.636Z,21
2023-03-08T02:30:51.532Z,21
2023-03-08T02:32:10.129Z,22
2023-03-08T02:33:19.690Z,18
2023-03-08T02:34:28.286Z,18
2023-03-08T02:35:35.617Z,19
2023-03-08T02:36:43.821Z,20
2023-03-08T02:38:10.438Z,21
2023-03-08T02:39:28.518Z,21
2023-03-08T02:40:46.664Z,20
2023-03-08T02:41:58.135Z,23
2023-03-08T02:43:07.343Z,24
2023-03-08T02:44:17.344Z,22
2023-03-08T02:45:28.098Z,23
2023-03-08T02:46:36.902Z,20
2023-03-08T02:47:56.031Z,22
2023-03-08T02:49:05.820Z,23
2023-03-08T02:50:12.904Z,22
2023-03-08T02:51:20.221Z,22
2023-03-08T02:52:30.311Z,23
2023-03-08T02:53:37.248Z,22
2023-03-08T02:54:47.124Z,23
2023-03-08T02:55:54.280Z,21
2023-03-08T02:57:01.263Z,20
2023-03-08T02:58:09.023Z,20
2023-03-08T02:59:16.072Z,21
2023-03-08T03:00:23.374Z,20
2023-03-08T03:01:30.751Z,18
2023-03-08T03:02:40.233Z,20
2023-03-08T03:03:48.035Z,20
2023-03-08T03:05:04.320Z,19
2023-03-08T03:06:12.700Z,19
2023-03-08T03:07:26.280Z,22
2023-03-08T03:08:33.294Z,20
2023-03-08T03:09:40.955Z,23
2023-03-08T03:10:51.015Z,18
2023-03-08T03:11:58.266Z,19
2023-03-08T03:13:06.954Z,21
2023-03-08T03:14:13.990Z,17
2023-03-08T03:15:21.431Z,21
2023-03-08T03:16:31.200Z,18
2023-03-08T03:17:49.258Z,19
2023-03-08T03:18:56.306Z,17
2023-03-08T03:20:11.606Z,18
2023-03-08T03:21:20.479Z,19
2023-03-08T03:22:28.151Z,18
2023-03-08T03:23:35.130Z,20
2023-03-08T03:24:45.416Z,18
2023-03-08T03:25:52.464Z,19
2023-03-08T03:27:02.322Z,16
2023-03-08T03:28:09.743Z,18
2023-03-08T03:29:20.552Z,17
2023-03-08T03:30:29.367Z,19
2023-03-08T03:31:41.551Z,19
2023-03-08T03:32:49.483Z,18
2023-03-08T03:33:56.511Z,16
2023-03-08T03:35:03.477Z,19
2023-03-08T03:36:11.199Z,18
2023-03-08T03:37:18.866Z,18
2023-03-08T03:38:38.795Z,18
2023-03-08T03:39:46.568Z,16
2023-03-08T03:40:54.600Z,19
2023-03-08T03:42:09.359Z,18
2023-03-08T03:43:16.370Z,16
2023-03-08T03:44:23.436Z,18
2023-03-08T03:45:34.341Z,18
2023-03-08T03:46:45.226Z,18
2023-03-08T03:47:53.297Z,16
2023-03-08T03:49:03.358Z,17
2023-03-08T03:50:10.719Z,18
2023-03-08T03:51:20.518Z,17
2023-03-08T03:52:27.558Z,16
2023-03-08T03:53:34.565Z,16
2023-03-08T03:54:41.866Z,16
2023-03-08T03:55:50.052Z,18
2023-03-08T03:56:57.855Z,18
2023-03-08T03:58:05.005Z,17
2023-03-08T03:59:12.031Z,18
2023-03-08T04:00:20.139Z,17
2023-03-08T04:01:27.247Z,15
2023-03-08T04:02:44.367Z,20
2023-03-08T04:03:57.093Z,16
2023-03-08T04:05:04.495Z,17
2023-03-08T04:06:11.560Z,19
2023-03-08T04:07:18.695Z,17
2023-03-08T04:08:27.517Z,16
2023-03-08T04:09:34.684Z,17
2023-03-08T04:10:43.465Z,16
2023-03-08T04:11:56.342Z,15
2023-03-08T04:13:04.496Z,16
2023-03-08T04:14:11.554Z,16
2023-03-08T04:15:22.631Z,16
2023-03-08T04:16:29.759Z,17
2023-03-08T04:17:37.419Z,15
2023-03-08T04:18:47.551Z,15
2023-03-08T04:20:04.101Z,16
2023-03-08T04:21:14.429Z,17
2023-03-08T04:22:30.101Z,15
2023-03-08T04:23:54.406Z,17
2023-03-08T04:25:03.375Z,18
2023-03-08T04:26:18.651Z,18
2023-03-08T04:27:33.059Z,20
2023-03-08T04:28:44.188Z,18
2023-03-08T04:30:00.863Z,18
2023-03-08T04:31:08.916Z,19
2023-03-08T04:32:21.489Z,17
2023-03-08T04:33:28.690Z,18
2023-03-08T04:34:43.813Z,19
2023-03-08T04:35:51.993Z,21
2023-03-08T04:36:59.178Z,21
2023-03-08T04:38:14.346Z,23
2023-03-08T04:39:42.374Z,24
2023-03-08T04:40:52.483Z,25
2023-03-08T04:42:09.467Z,23
2023-03-08T04:43:28.723Z,23
2023-03-08T04:44:40.438Z,25
2023-03-08T04:45:48.206Z,25
2023-03-08T04:47:04.032Z,24
2023-03-08T04:48:19.620Z,22
2023-03-08T04:49:26.787Z,19
2023-03-08T04:50:36.177Z,23
2023-03-08T04:51:43.186Z,22
2023-03-08T04:52:50.211Z,19
2023-03-08T04:53:57.354Z,19
2023-03-08T04:55:04.653Z,21
2023-03-08T04:56:13.577Z,19
2023-03-08T04:57:21.107Z,18
2023-03-08T04:58:28.313Z,18
2023-03-08T04:59:36.754Z,19
2023-03-08T05:00:43.858Z,19
2023-03-08T05:01:51.040Z,19
2023-03-08T05:03:05.652Z,20
2023-03-08T05:04:19.914Z,19
2023-03-08T05:05:27.025Z,20
2023-03-08T05:06:53.234Z,20
2023-03-08T05:08:08.517Z,22
2023-03-08T05:09:20.387Z,19
2023-03-08T05:10:28.607Z,21
2023-03-08T05:11:44.649Z,19
2023-03-08T05:12:52.580Z,22
2023-03-08T05:14:08.418Z,20
2023-03-08T05:15:15.502Z,19
2023-03-08T05:16:23.515Z,20
2023-03-08T05:17:35.995Z,21
2023-03-08T05:18:50.284Z,21
2023-03-08T05:19:57.378Z,20
2023-03-08T05:21:06.989Z,21
2023-03-08T05:22:21.394Z,21
2023-03-08T05:23:29.684Z,20
2023-03-08T05:24:36.762Z,20
2023-03-08T05:25:51.199Z,20
2023-03-08T05:26:59.095Z,20
2023-03-08T05:28:09.763Z,20
2023-03-08T05:29:24.110Z,21
2023-03-08T05:30:33.129Z,19
2023-03-08T05:31:40.473Z,21
2023-03-08T05:32:50.565Z,21
2023-03-08T05:33:58.188Z,21
2023-03-08T05:35:05.531Z,19
2023-03-08T05:36:13.639Z,20
2023-03-08T05:37:20.772Z,22
2023-03-08T05:38:29.262Z,22
2023-03-08T05:39:36.259Z,19
2023-03-08T05:40:51.072Z,20
2023-03-08T05:41:59.048Z,20
2023-03-08T05:43:15.180Z,21
2023-03-08T05:44:27.855Z,22
2023-03-08T05:45:35.590Z,20
2023-03-08T05:46:47.055Z,22
2023-03-08T05:47:54.198Z,19
2023-03-08T05:49:02.449Z,26
2023-03-08T05:50:12.221Z,34
2023-03-08T05:51:31.148Z,34
2023-03-08T05:52:38.267Z,25
2023-03-08T05:53:50.947Z,23
2023-03-08T05:54:58.701Z,23
2023-03-08T05:56:14.206Z,25
2023-03-08T05:57:25.822Z,21
2023-03-08T05:58:33.977Z,22
2023-03-08T05:59:45.453Z,22
2023-03-08T06:01:13.790Z,27
2023-03-08T06:02:24.381Z,22
2023-03-08T06:03:32.080Z,20
2023-03-08T06:04:43.698Z,21
2023-03-08T06:05:53.885Z,19
2023-03-08T06:07:00.937Z,23
2023-03-08T06:08:09.354Z,22
2023-03-08T06:09:16.943Z,24
2023-03-08T06:10:26.875Z,29
2023-03-08T06:11:34.122Z,21
2023-03-08T06:12:41.108Z,23
2023-03-08T06:13:48.242Z,28
2023-03-08T06:14:58.640Z,22
2023-03-08T06:16:09.086Z,24
2023-03-08T06:17:29.378Z,24
2023-03-08T06:18:36.545Z,31
2023-03-08T06:19:50.575Z,24
2023-03-08T06:20:59.164Z,24
2023-03-08T06:22:10.253Z,23
2023-03-08T06:23:20.271Z,24
2023-03-08T06:24:27.392Z,24
2023-03-08T06:25:34.469Z,22
2023-03-08T06:26:42.385Z,23
2023-03-08T06:27:49.824Z,23
2023-03-08T06:28:56.995Z,27
2023-03-08T06:30:07.781Z,21
2023-03-08T06:32:25.518Z,24
2023-03-08T06:33:32.802Z,24
2023-03-08T06:34:40.084Z,24
2023-03-08T06:35:47.541Z,22
2023-03-08T06:37:03.939Z,21
2023-03-08T06:38:20.227Z,22
2023-03-08T06:39:27.213Z,21
2023-03-08T06:40:35.003Z,25
2023-03-08T06:41:42.116Z,24
2023-03-08T06:42:52.452Z,23
2023-03-08T06:43:59.504Z,21
2023-03-08T06:45:06.524Z,25
2023-03-08T06:46:12.102Z,25
2023-03-08T06:47:20.409Z,25
2023-03-08T06:48:25.408Z,25
2023-03-08T06:49:30.456Z,25
2023-03-08T06:50:35.620Z,25
2023-03-08T06:51:40.674Z,25
2023-03-08T06:52:46.245Z,25
2023-03-08T06:53:53.111Z,22
2023-03-08T06:55:00.240Z,21
2023-03-08T06:56:07.125Z,20
2023-03-08T06:57:14.157Z,19
2023-03-08T06:58:22.635Z,22
2023-03-08T06:59:29.916Z,24
2023-03-08T07:00:36.903Z,22
2023-03-08T07:01:44.357Z,22
2023-03-08T07:02:51.336Z,21
2023-03-08T07:03:58.640Z,20
2023-03-08T07:05:09.500Z,23
2023-03-08T07:06:19.496Z,23
2023-03-08T07:07:26.877Z,21
2023-03-08T07:08:37.807Z,24
2023-03-08T07:09:44.866Z,23
2023-03-08T07:10:52.379Z,25
2023-03-08T07:11:59.404Z,19
2023-03-08T07:13:06.544Z,18
2023-03-08T07:14:16.509Z,21
2023-03-08T07:15:23.538Z,22
2023-03-08T07:16:33.908Z,20
2023-03-08T07:17:40.931Z,20
2023-03-08T07:18:48.933Z,20
2023-03-08T07:19:56.312Z,23
2023-03-08T07:21:04.327Z,20
2023-03-08T07:22:11.551Z,23
2023-03-08T07:23:23.263Z,22
2023-03-08T07:24:30.258Z,22
2023-03-08T07:25:38.184Z,21
2023-03-08T07:26:45.147Z,23
2023-03-08T07:27:52.254Z,24
2023-03-08T07:29:01.473Z,23
2023-03-08T07:30:08.881Z,21
2023-03-08T07:31:19.014Z,20
2023-03-08T07:32:27.621Z,20
2023-03-08T07:33:34.499Z,20
2023-03-08T07:34:44.574Z,20
2023-03-08T07:35:52.669Z,19
2023-03-08T07:36:59.702Z,22
2023-03-08T07:38:06.801Z,17
2023-03-08T07:39:16.716Z,22
2023-03-08T07:40:24.624Z,21
2023-03-08T07:41:31.798Z,21
2023-03-08T07:42:39.712Z,20
2023-03-08T07:43:46.724Z,27
2023-03-08T07:44:54.294Z,25
2023-03-08T07:46:02.792Z,27
2023-03-08T07:47:09.721Z,22
2023-03-08T07:48:17.093Z,24
2023-03-08T07:49:25.840Z,16
2023-03-08T07:50:33.062Z,18
2023-03-08T07:51:41.010Z,17
2023-03-08T07:52:51.092Z,17
2023-03-08T07:53:59.141Z,16
2023-03-08T07:55:08.507Z,16
2023-03-08T07:56:15.534Z,16
2023-03-08T07:57:25.671Z,18
2023-03-08T07:58:32.578Z,20
2023-03-08T07:59:39.639Z,16
2023-03-08T08:00:47.499Z,17
2023-03-08T08:01:54.594Z,18
2023-03-08T08:03:01.676Z,19
2023-03-08T08:04:11.375Z,20
2023-03-08T08:05:20.233Z,18
2023-03-08T08:06:29.953Z,19
2023-03-08T08:07:39.833Z,17
2023-03-08T08:08:46.852Z,18
2023-03-08T08:09:53.912Z,18
2023-03-08T08:11:01.062Z,19
2023-03-08T08:12:16.171Z,18
2023-03-08T08:13:23.251Z,18
2023-03-08T08:14:31.858Z,18
2023-03-08T08:15:40.005Z,20
2023-03-08T08:16:47.655Z,20
2023-03-08T08:17:55.871Z,20
2023-03-08T08:19:05.038Z,20
2023-03-08T08:20:16.501Z,20
2023-03-08T08:21:27.464Z,20
2023-03-08T08:22:34.043Z,18
2023-03-08T08:23:41.364Z,17
2023-03-08T08:24:48.460Z,18
2023-03-08T08:25:55.665Z,17
2023-03-08T08:27:04.946Z,20
2023-03-08T08:28:15.504Z,19
2023-03-08T08:29:29.264Z,19
2023-03-08T08:30:37.372Z,18
2023-03-08T08:31:51.772Z,18
2023-03-08T08:33:00.432Z,19
2023-03-08T08:34:08.778Z,19
2023-03-08T08:35:17.965Z,15
2023-03-08T08:36:27.867Z,16
2023-03-08T08:37:36.543Z,15
2023-03-08T08:38:45.016Z,15
2023-03-08T08:39:56.798Z,15
2023-03-08T08:41:04.181Z,18
2023-03-08T08:42:11.237Z,16
2023-03-08T08:43:18.414Z,17
2023-03-08T08:44:25.611Z,17
2023-03-08T08:45:33.859Z,19
2023-03-08T08:46:42.082Z,16
2023-03-08T08:47:49.809Z,15
2023-03-08T08:49:01.306Z,16
2023-03-08T08:50:12.931Z,16
2023-03-08T08:51:18.762Z,18
2023-03-08T08:52:25.769Z,16
2023-03-08T08:53:34.082Z,16
2023-03-08T08:54:41.853Z,16
2023-03-08T08:55:49.781Z,14
2023-03-08T08:56:58.752Z,13
2023-03-08T08:58:07.688Z,14
2023-03-08T08:59:15.165Z,16
2023-03-08T09:00:22.209Z,16
2023-03-08T09:01:29.415Z,13
2023-03-08T09:02:36.872Z,20
2023-03-08T09:03:43.959Z,12
2023-03-08T09:04:51.099Z,10
2023-03-08T09:05:58.096Z,12
2023-03-08T09:07:05.090Z,13
2023-03-08T09:08:13.865Z,11
2023-03-08T09:09:24.633Z,12
2023-03-08T09:10:33.006Z,16
2023-03-08T09:11:53.571Z,25
2023-03-08T09:12:51.658Z,14
2023-03-08T09:14:03.608Z,15
2023-03-08T09:15:11.268Z,13
2023-03-08T09:16:19.616Z,14
2023-03-08T09:17:29.374Z,14
2023-03-08T09:18:37.816Z,12
2023-03-08T09:19:47.343Z,13
2023-03-08T09:20:55.686Z,12
2023-03-08T09:22:02.824Z,14
2023-03-08T09:23:09.878Z,13
2023-03-08T09:24:17.414Z,13
2023-03-08T09:25:24.384Z,15
2023-03-08T09:26:31.580Z,16
2023-03-08T09:27:39.762Z,17
2023-03-08T09:28:47.612Z,19
2023-03-08T09:29:55.827Z,18
2023-03-08T09:31:09.643Z,15
2023-03-08T09:32:18.680Z,16
2023-03-08T09:33:27.397Z,14
2023-03-08T09:34:54.890Z,14
2023-03-08T09:36:04.307Z,14
2023-03-08T09:37:12.923Z,14
2023-03-08T09:38:21.418Z,14
2023-03-08T09:39:31.381Z,14
2023-03-08T09:40:42.501Z,13
2023-03-08T09:41:52.757Z,14
2023-03-08T09:43:06.893Z,15
2023-03-08T09:44:26.577Z,15
2023-03-08T09:45:40.342Z,14
2023-03-08T09:46:48.506Z,13
2023-03-08T09:48:07.144Z,14
2023-03-08T09:49:21.697Z,14
2023-03-08T09:50:29.617Z,12
2023-03-08T09:51:46.863Z,13
2023-03-08T09:52:55.980Z,13
2023-03-08T09:54:08.294Z,16
2023-03-08T09:55:18.215Z,13
2023-03-08T09:56:28.384Z,13
2023-03-08T09:57:35.427Z,14
2023-03-08T09:58:42.734Z,13
2023-03-08T09:59:57.947Z,13
2023-03-08T10:01:05.049Z,14
2023-03-08T10:02:24.902Z,14
2023-03-08T10:03:42.044Z,14
2023-03-08T10:05:12.631Z,13
2023-03-08T10:06:10.238Z,13
2023-03-08T10:07:28.923Z,15
2023-03-08T10:08:38.538Z,14
2023-03-08T10:09:58.703Z,15
2023-03-08T10:11:17.732Z,13
2023-03-08T10:12:27.643Z,17
2023-03-08T10:13:42.886Z,15
2023-03-08T10:14:53.273Z,16
2023-03-08T10:16:00.788Z,59
2023-03-08T10:17:16.536Z,12
2023-03-08T10:18:26.084Z,13
2023-03-08T10:19:33.690Z,12
2023-03-08T10:20:44.281Z,11
2023-03-08T10:21:51.803Z,10
2023-03-08T10:22:58.828Z,11
2023-03-08T10:24:07.398Z,12
2023-03-08T10:25:17.055Z,11
2023-03-08T10:26:32.040Z,10
2023-03-08T10:27:39.177Z,10
2023-03-08T10:28:48.338Z,11
2023-03-08T10:29:56.257Z,11
2023-03-08T10:31:03.356Z,11
2023-03-08T10:32:20.911Z,12
2023-03-08T10:33:28.280Z,11
2023-03-08T10:34:37.855Z,9
2023-03-08T10:35:45.048Z,10
2023-03-08T10:36:59.950Z,11
2023-03-08T10:38:07.170Z,10
2023-03-08T10:39:14.362Z,11
2023-03-08T10:40:21.445Z,11
2023-03-08T10:41:28.612Z,11
2023-03-08T10:42:37.943Z,11
2023-03-08T10:43:55.241Z,11
2023-03-08T10:45:03.092Z,11
2023-03-08T10:46:15.200Z,10
2023-03-08T10:47:27.806Z,12
2023-03-08T10:48:34.841Z,15
2023-03-08T10:49:41.831Z,9
2023-03-08T10:50:49.066Z,10
2023-03-08T10:52:01.120Z,10
2023-03-08T10:53:08.212Z,9
2023-03-08T10:54:21.099Z,10
2023-03-08T10:55:28.132Z,10
2023-03-08T10:56:35.256Z,11
2023-03-08T10:57:42.781Z,10
2023-03-08T10:58:56.298Z,11
2023-03-08T11:00:04.106Z,11
2023-03-08T11:01:16.382Z,11
2023-03-08T11:02:31.152Z,10
2023-03-08T11:03:38.251Z,12
2023-03-08T11:04:48.140Z,10
2023-03-08T11:05:55.084Z,14
2023-03-08T11:07:02.345Z,12
2023-03-08T11:08:14.470Z,12
2023-03-08T11:09:21.464Z,12
2023-03-08T11:10:34.660Z,13
2023-03-08T11:11:43.235Z,12
2023-03-08T11:12:50.374Z,11
2023-03-08T11:14:05.113Z,10
2023-03-08T11:15:12.178Z,9
2023-03-08T11:16:19.822Z,10
2023-03-08T11:17:31.861Z,12
2023-03-08T11:18:39.109Z,12
2023-03-08T11:19:49.622Z,12
2023-03-08T11:21:04.420Z,13
2023-03-08T11:22:16.993Z,15
2023-03-08T11:23:34.161Z,13
2023-03-08T11:24:46.227Z,13
2023-03-08T11:26:03.380Z,12
2023-03-08T11:27:18.012Z,16
2023-03-08T11:28:30.247Z,14
2023-03-08T11:29:45.194Z,14
2023-03-08T11:31:03.035Z,17
2023-03-08T11:32:16.542Z,18
2023-03-08T11:33:28.681Z,15
2023-03-08T11:34:40.535Z,12
2023-03-08T11:35:57.756Z,11
2023-03-08T11:37:10.126Z,14
2023-03-08T11:38:20.804Z,13
2023-03-08T11:39:28.064Z,12
2023-03-08T11:40:38.176Z,10
2023-03-08T11:41:54.530Z,10
2023-03-08T11:43:10.188Z,15
2023-03-08T11:44:17.285Z,13
2023-03-08T11:45:29.596Z,13
2023-03-08T11:46:44.427Z,12
2023-03-08T11:47:56.465Z,13
2023-03-08T11:49:11.636Z,15
2023-03-08T11:50:28.772Z,15
2023-03-08T11:51:43.422Z,15
2023-03-08T11:52:58.773Z,15
2023-03-08T11:54:10.890Z,13
2023-03-08T11:55:28.232Z,14
2023-03-08T11:56:45.398Z,14
2023-03-08T11:57:58.391Z,13
2023-03-08T11:59:13.261Z,16
2023-03-08T12:00:25.387Z,14
2023-03-08T12:01:37.680Z,12
2023-03-08T12:02:49.649Z,13
2023-03-08T12:03:57.026Z,20
2023-03-08T12:05:04.038Z,13
2023-03-08T12:06:28.168Z,13
2023-03-08T12:07:31.487Z,13
2023-03-08T12:08:46.499Z,12
2023-03-08T12:09:56.553Z,11
2023-03-08T12:11:09.453Z,12
2023-03-08T12:12:26.479Z,12
2023-03-08T12:13:34.464Z,12
2023-03-08T12:14:41.515Z,13
2023-03-08T12:15:54.119Z,15
2023-03-08T12:17:11.472Z,14
2023-03-08T12:18:26.994Z,14
2023-03-08T12:19:40.776Z,13
2023-03-08T12:20:50.505Z,15
2023-03-08T12:21:57.830Z,14
2023-03-08T12:23:07.744Z,13
2023-03-08T12:24:21.146Z,15
2023-03-08T12:25:33.178Z,14
2023-03-08T12:26:46.183Z,13
2023-03-08T12:27:58.329Z,14
2023-03-08T12:29:15.615Z,16
2023-03-08T12:30:27.575Z,14
2023-03-08T12:31:44.692Z,12
2023-03-08T12:32:51.788Z,14
2023-03-08T12:33:58.989Z,11
2023-03-08T12:35:06.818Z,13
2023-03-08T12:36:27.975Z,14
2023-03-08T12:37:39.901Z,13
2023-03-08T12:38:46.902Z,13
2023-03-08T12:39:53.841Z,13
2023-03-08T12:41:04.076Z,13
2023-03-08T12:42:26.752Z,13
2023-03-08T12:43:41.760Z,14
2023-03-08T12:44:50.541Z,15
2023-03-08T12:45:58.010Z,12
2023-03-08T12:47:05.019Z,15
2023-03-08T12:48:17.620Z,13
2023-03-08T12:49:27.642Z,14
2023-03-08T12:50:37.345Z,14
2023-03-08T12:51:44.372Z,13
2023-03-08T12:52:53.066Z,13
2023-03-08T12:54:00.934Z,13
2023-03-08T12:55:10.739Z,15
2023-03-08T12:56:23.496Z,11
2023-03-08T12:57:35.609Z,15
2023-03-08T12:58:48.730Z,13
2023-03-08T12:59:59.334Z,14
2023-03-08T13:01:09.536Z,13
2023-03-08T13:02:26.888Z,12
2023-03-08T13:03:33.947Z,12
2023-03-08T13:04:42.773Z,13
2023-03-08T13:05:48.958Z,12
2023-03-08T13:06:59.168Z,14
2023-03-08T13:08:12.664Z,12
2023-03-08T13:09:25.325Z,14
2023-03-08T13:10:43.517Z,13
2023-03-08T13:11:53.545Z,15
2023-03-08T13:13:03.342Z,16
2023-03-08T13:14:12.947Z,15
2023-03-08T13:15:24.992Z,16
2023-03-08T13:16:32.084Z,14
2023-03-08T13:17:41.713Z,15
2023-03-08T13:18:55.390Z,15
2023-03-08T13:20:12.709Z,14
2023-03-08T13:21:24.816Z,13
2023-03-08T13:22:35.662Z,14
2023-03-08T13:23:56.118Z,14
2023-03-08T13:25:07.029Z,18
2023-03-08T13:26:19.235Z,15
2023-03-08T13:27:37.330Z,14
2023-03-08T13:28:55.160Z,14
2023-03-08T13:30:02.427Z,13
2023-03-08T13:31:19.623Z,13
2023-03-08T13:32:26.690Z,13
2023-03-08T13:33:33.637Z,12
2023-03-08T13:34:40.589Z,14
2023-03-08T13:35:51.293Z,15
2023-03-08T13:37:03.461Z,16
2023-03-08T13:38:20.877Z,14
2023-03-08T13:39:28.472Z,12
2023-03-08T13:40:35.688Z,16
2023-03-08T13:41:43.038Z,16
2023-03-08T13:42:54.740Z,17
2023-03-08T13:44:04.992Z,23
2023-03-08T13:45:18.641Z,22
2023-03-08T13:46:26.008Z,25
2023-03-08T13:47:33.133Z,15
2023-03-08T13:48:40.241Z,16
2023-03-08T13:49:50.579Z,18
2023-03-08T13:50:57.201Z,12
2023-03-08T13:52:04.383Z,14
2023-03-08T13:53:16.374Z,16
2023-03-08T13:54:25.100Z,16
2023-03-08T13:55:37.509Z,18
2023-03-08T13:56:51.024Z,19
2023-03-08T13:58:03.320Z,18
2023-03-08T13:59:10.543Z,16
2023-03-08T14:00:24.151Z,18
2023-03-08T14:01:31.812Z,18
2023-03-08T14:02:38.815Z,15
2023-03-08T14:03:45.899Z,17
2023-03-08T14:04:53.401Z,20
2023-03-08T14:06:06.078Z,16
2023-03-08T14:07:23.960Z,16
2023-03-08T14:08:33.863Z,14
2023-03-08T14:09:42.009Z,14
2023-03-08T14:10:50.771Z,15
2023-03-08T14:12:05.689Z,12
2023-03-08T14:13:12.720Z,17
2023-03-08T14:14:19.883Z,15
2023-03-08T14:15:31.617Z,16
2023-03-08T14:16:38.651Z,16
2023-03-08T14:17:45.708Z,13
2023-03-08T14:18:52.676Z,14
2023-03-08T14:19:59.823Z,15
2023-03-08T14:21:06.830Z,19
2023-03-08T14:22:25.814Z,17
2023-03-08T14:23:26.322Z,20
2023-03-08T14:24:34.842Z,16
2023-03-08T14:25:42.217Z,17
2023-03-08T14:26:52.247Z,16
2023-03-08T14:28:01.843Z,15
2023-03-08T14:29:09.689Z,14
2023-03-08T14:30:17.560Z,18
2023-03-08T14:31:24.639Z,14
2023-03-08T14:32:31.609Z,13
2023-03-08T14:33:42.401Z,15
2023-03-08T14:34:45.621Z,13
2023-03-08T14:35:52.769Z,13
2023-03-08T14:37:03.661Z,14
2023-03-08T14:38:20.074Z,11
2023-03-08T14:39:27.263Z,12
2023-03-08T14:40:36.276Z,12
2023-03-08T14:41:43.536Z,11
2023-03-08T14:42:50.682Z,13
2023-03-08T14:44:00.452Z,12
2023-03-08T14:45:07.591Z,12
2023-03-08T14:46:20.047Z,13
2023-03-08T14:47:27.071Z,13
2023-03-08T14:48:34.472Z,13
2023-03-08T14:49:41.698Z,16
2023-03-08T14:50:53.874Z,13
2023-03-08T14:52:09.429Z,12
2023-03-08T14:53:22.677Z,12
2023-03-08T14:54:29.693Z,17
2023-03-08T14:55:37.233Z,11
2023-03-08T14:56:44.257Z,11
2023-03-08T14:57:51.514Z,10
2023-03-08T14:59:08.060Z,12
2023-03-08T15:00:14.757Z,11
2023-03-08T15:01:22.043Z,12
2023-03-08T15:02:31.859Z,11
2023-03-08T15:03:39.034Z,14
2023-03-08T15:04:49.011Z,13
2023-03-08T15:05:57.123Z,15
2023-03-08T15:07:06.948Z,14
2023-03-08T15:08:22.665Z,13
2023-03-08T15:09:32.515Z,12
2023-03-08T15:10:39.779Z,14
2023-03-08T15:11:47.154Z,13
2023-03-08T15:12:54.149Z,15
2023-03-08T15:14:01.657Z,15
2023-03-08T15:15:08.575Z,16
2023-03-08T15:16:15.899Z,17
2023-03-08T15:17:23.051Z,15
2023-03-08T15:18:31.061Z,12
2023-03-08T15:19:38.090Z,14
2023-03-08T15:20:46.792Z,13
2023-03-08T15:21:56.768Z,12
2023-03-08T15:23:06.368Z,12
2023-03-08T15:24:17.209Z,10
2023-03-08T15:25:27.191Z,11
2023-03-08T15:26:37.866Z,12
2023-03-08T15:27:49.718Z,14
2023-03-08T15:28:55.312Z,11
2023-03-08T15:30:02.564Z,15
2023-03-08T15:31:10.642Z,12
2023-03-08T15:32:17.791Z,18
2023-03-08T15:33:25.042Z,17
2023-03-08T15:34:31.994Z,15
2023-03-08T15:35:39.117Z,17
2023-03-08T15:36:52.055Z,16
2023-03-08T15:38:00.845Z,15
2023-03-08T15:39:08.264Z,18
2023-03-08T15:40:15.281Z,14
2023-03-08T15:41:23.325Z,13
2023-03-08T15:42:36.513Z,12
2023-03-08T15:43:43.473Z,14
2023-03-08T15:44:53.120Z,14
2023-03-08T15:46:00.118Z,14
2023-03-08T15:47:08.869Z,14
2023-03-08T15:48:15.905Z,12
2023-03-08T15:49:22.963Z,13
2023-03-08T15:50:29.983Z,13
2023-03-08T15:51:40.180Z,14
2023-03-08T15:52:47.120Z,13
2023-03-08T15:53:57.123Z,13
2023-03-08T15:55:04.206Z,12
2023-03-08T15:56:14.789Z,15
2023-03-08T15:57:22.086Z,17
2023-03-08T15:58:29.121Z,17
2023-03-08T15:59:37.450Z,14
2023-03-08T16:00:44.436Z,16
2023-03-08T16:01:51.456Z,13
2023-03-08T16:03:02.011Z,15
2023-03-08T16:04:09.894Z,15
2023-03-08T16:05:17.565Z,17
2023-03-08T16:06:24.833Z,15
2023-03-08T16:07:31.908Z,16
2023-03-08T16:08:41.730Z,16
2023-03-08T16:09:48.809Z,17
2023-03-08T16:10:57.177Z,20
2023-03-08T16:12:04.209Z,21
2023-03-08T16:13:13.585Z,20
2023-03-08T16:14:24.170Z,17
2023-03-08T16:15:32.123Z,16
2023-03-08T16:16:45.435Z,22
2023-03-08T16:17:47.706Z,18
2023-03-08T16:18:54.711Z,20
2023-03-08T16:20:03.449Z,20
2023-03-08T16:21:10.856Z,20
2023-03-08T16:22:20.727Z,21
2023-03-08T16:23:28.620Z,18
2023-03-08T16:24:38.095Z,18
2023-03-08T16:25:45.166Z,18
2023-03-08T16:27:02.664Z,20
2023-03-08T16:28:10.495Z,20
2023-03-08T16:29:17.643Z,22
2023-03-08T16:30:27.447Z,25
2023-03-08T16:31:36.977Z,24
2023-03-08T16:32:45.159Z,23
2023-03-08T16:33:52.168Z,24
2023-03-08T16:35:00.488Z,22
2023-03-08T16:36:09.026Z,21
2023-03-08T16:37:16.862Z,21
2023-03-08T16:38:23.817Z,20
2023-03-08T16:39:30.893Z,20
2023-03-08T16:40:38.865Z,20